sensor_id;sensor_type;location;lat;lon;timestamp;temperature;humidity
16066;DHT22;8137;48.952;8.970;2023-07-28T00:00:07;16.60;99.90
16066;DHT22;8137;48.952;8.970;2023-07-28T00:02:33;16.60;99.90
16066;DHT22;8137;48.952;8.970;2023-07-28T00:04:59;16.60;99.90
16066;DHT22;8137;48.952;8.970;2023-07-28T00:07:24;16.60;99.90
16066;DHT22;8137;48.952;8.970;2023-07-28T00:09:50;16.60;99.90
16066;DHT22;8137;48.952;8.970;2023-07-28T00:12:16;16.60;99.90
16066;DHT22;8137;48.952;8.970;2023-07-28T00:14:41;16.50;99.90
16066;DHT22;8137;48.952;8.970;2023-07-28T00:17:07;16.60;99.90
16066;DHT22;8137;48.952;8.970;2023-07-28T00:19:32;16.50;99.90
16066;DHT22;8137;48.952;8.970;2023-07-28T00:21:58;16.60;99.90
16066;DHT22;8137;48.952;8.970;2023-07-28T00:24:23;16.60;99.90
16066;DHT22;8137;48.952;8.970;2023-07-28T00:26:49;16.60;99.90
16066;DHT22;8137;48.952;8.970;2023-07-28T00:29:15;16.50;99.90
16066;DHT22;8137;48.952;8.970;2023-07-28T00:31:40;16.60;99.90
16066;DHT22;8137;48.952;8.970;2023-07-28T00:34:06;16.60;99.90
16066;DHT22;8137;48.952;8.970;2023-07-28T00:36:32;16.60;99.90
16066;DHT22;8137;48.952;8.970;2023-07-28T00:38:57;16.60;99.90
16066;DHT22;8137;48.952;8.970;2023-07-28T00:41:23;16.60;99.90
16066;DHT22;8137;48.952;8.970;2023-07-28T00:43:49;16.70;99.90
16066;DHT22;8137;48.952;8.970;2023-07-28T00:46:16;16.70;99.90
16066;DHT22;8137;48.952;8.970;2023-07-28T00:48:41;16.70;99.90
16066;DHT22;8137;48.952;8.970;2023-07-28T00:51:08;16.60;99.90
16066;DHT22;8137;48.952;8.970;2023-07-28T00:53:34;16.70;99.90
16066;DHT22;8137;48.952;8.970;2023-07-28T00:56:04;16.70;99.90
16066;DHT22;8137;48.952;8.970;2023-07-28T00:58:30;16.70;99.90
16066;DHT22;8137;48.952;8.970;2023-07-28T01:00:56;16.70;99.90
16066;DHT22;8137;48.952;8.970;2023-07-28T01:03:22;16.70;99.90
16066;DHT22;8137;48.952;8.970;2023-07-28T01:09:03;16.70;99.90
16066;DHT22;8137;48.952;8.970;2023-07-28T01:11:30;16.60;99.90
16066;DHT22;8137;48.952;8.970;2023-07-28T01:13:55;16.60;99.90
16066;DHT22;8137;48.952;8.970;2023-07-28T01:16:21;16.60;99.90
16066;DHT22;8137;48.952;8.970;2023-07-28T01:18:47;16.60;99.90
16066;DHT22;8137;48.952;8.970;2023-07-28T01:21:26;16.60;99.90
16066;DHT22;8137;48.952;8.970;2023-07-28T01:24:05;16.60;99.90
16066;DHT22;8137;48.952;8.970;2023-07-28T01:26:38;16.50;99.90
16066;DHT22;8137;48.952;8.970;2023-07-28T01:29:05;16.50;99.90
16066;DHT22;8137;48.952;8.970;2023-07-28T01:31:33;16.50;99.90
16066;DHT22;8137;48.952;8.970;2023-07-28T01:33:59;16.50;99.90
16066;DHT22;8137;48.952;8.970;2023-07-28T01:36:24;16.50;99.90
16066;DHT22;8137;48.952;8.970;2023-07-28T01:38:50;16.50;99.90
16066;DHT22;8137;48.952;8.970;2023-07-28T01:41:16;16.40;99.90
16066;DHT22;8137;48.952;8.970;2023-07-28T01:43:42;16.40;99.90
16066;DHT22;8137;48.952;8.970;2023-07-28T01:46:07;16.40;99.90
16066;DHT22;8137;48.952;8.970;2023-07-28T01:48:33;16.30;99.90
16066;DHT22;8137;48.952;8.970;2023-07-28T01:50:59;16.30;99.90
16066;DHT22;8137;48.952;8.970;2023-07-28T01:53:24;16.30;99.90
16066;DHT22;8137;48.952;8.970;2023-07-28T01:55:50;16.30;99.90
16066;DHT22;8137;48.952;8.970;2023-07-28T01:58:16;16.20;99.90
16066;DHT22;8137;48.952;8.970;2023-07-28T02:00:41;16.20;99.90
16066;DHT22;8137;48.952;8.970;2023-07-28T02:03:07;16.20;99.90
16066;DHT22;8137;48.952;8.970;2023-07-28T02:05:33;16.20;99.90
16066;DHT22;8137;48.952;8.970;2023-07-28T02:07:58;16.20;99.90
16066;DHT22;8137;48.952;8.970;2023-07-28T02:10:25;16.10;99.90
16066;DHT22;8137;48.952;8.970;2023-07-28T02:12:51;16.10;99.90
16066;DHT22;8137;48.952;8.970;2023-07-28T02:15:17;16.10;99.90
16066;DHT22;8137;48.952;8.970;2023-07-28T02:17:43;16.10;99.90
16066;DHT22;8137;48.952;8.970;2023-07-28T02:20:08;16.10;99.90
16066;DHT22;8137;48.952;8.970;2023-07-28T02:22:39;16.10;99.90
16066;DHT22;8137;48.952;8.970;2023-07-28T02:25:05;16.10;99.90
16066;DHT22;8137;48.952;8.970;2023-07-28T02:27:31;16.10;99.90
16066;DHT22;8137;48.952;8.970;2023-07-28T02:29:56;16.20;99.90
16066;DHT22;8137;48.952;8.970;2023-07-28T02:32:22;16.20;99.90
16066;DHT22;8137;48.952;8.970;2023-07-28T02:34:48;16.20;99.90
16066;DHT22;8137;48.952;8.970;2023-07-28T02:37:14;16.10;99.90
16066;DHT22;8137;48.952;8.970;2023-07-28T02:39:40;16.20;99.90
16066;DHT22;8137;48.952;8.970;2023-07-28T02:42:06;16.20;99.90
16066;DHT22;8137;48.952;8.970;2023-07-28T02:44:31;16.20;99.90
16066;DHT22;8137;48.952;8.970;2023-07-28T02:46:57;16.20;99.90
16066;DHT22;8137;48.952;8.970;2023-07-28T02:49:22;16.20;99.90
16066;DHT22;8137;48.952;8.970;2023-07-28T02:51:48;16.20;99.90
16066;DHT22;8137;48.952;8.970;2023-07-28T02:54:14;16.20;99.90
16066;DHT22;8137;48.952;8.970;2023-07-28T02:56:39;16.20;99.90
16066;DHT22;8137;48.952;8.970;2023-07-28T02:59:05;16.20;99.90
16066;DHT22;8137;48.952;8.970;2023-07-28T03:01:31;16.10;99.90
16066;DHT22;8137;48.952;8.970;2023-07-28T03:04:01;16.10;99.90
16066;DHT22;8137;48.952;8.970;2023-07-28T03:06:27;16.10;99.90
16066;DHT22;8137;48.952;8.970;2023-07-28T03:08:53;16.20;99.90
16066;DHT22;8137;48.952;8.970;2023-07-28T03:11:18;16.20;99.90
16066;DHT22;8137;48.952;8.970;2023-07-28T03:13:44;16.20;99.90
16066;DHT22;8137;48.952;8.970;2023-07-28T03:16:09;16.20;99.90
16066;DHT22;8137;48.952;8.970;2023-07-28T03:18:35;16.20;99.90
16066;DHT22;8137;48.952;8.970;2023-07-28T03:21:01;16.20;99.90
16066;DHT22;8137;48.952;8.970;2023-07-28T03:23:27;16.20;99.90
16066;DHT22;8137;48.952;8.970;2023-07-28T03:25:52;16.20;99.90
16066;DHT22;8137;48.952;8.970;2023-07-28T03:28:18;16.20;99.90
16066;DHT22;8137;48.952;8.970;2023-07-28T03:30:44;16.20;99.90
16066;DHT22;8137;48.952;8.970;2023-07-28T03:33:09;16.20;99.90
16066;DHT22;8137;48.952;8.970;2023-07-28T03:35:35;16.20;99.90
16066;DHT22;8137;48.952;8.970;2023-07-28T03:38:01;16.30;99.90
16066;DHT22;8137;48.952;8.970;2023-07-28T03:40:26;16.30;99.90
16066;DHT22;8137;48.952;8.970;2023-07-28T03:42:52;16.30;99.90
16066;DHT22;8137;48.952;8.970;2023-07-28T03:45:18;16.30;99.90
16066;DHT22;8137;48.952;8.970;2023-07-28T03:47:44;16.30;99.90
16066;DHT22;8137;48.952;8.970;2023-07-28T03:50:10;16.30;99.90
16066;DHT22;8137;48.952;8.970;2023-07-28T03:52:35;16.40;99.90
16066;DHT22;8137;48.952;8.970;2023-07-28T03:55:01;16.40;99.90
16066;DHT22;8137;48.952;8.970;2023-07-28T03:57:27;16.40;99.90
16066;DHT22;8137;48.952;8.970;2023-07-28T03:59:52;16.50;99.90
16066;DHT22;8137;48.952;8.970;2023-07-28T04:02:18;16.50;99.90
16066;DHT22;8137;48.952;8.970;2023-07-28T04:04:44;16.50;99.90
16066;DHT22;8137;48.952;8.970;2023-07-28T04:07:09;16.50;99.90
16066;DHT22;8137;48.952;8.970;2023-07-28T04:09:35;16.50;99.90
16066;DHT22;8137;48.952;8.970;2023-07-28T04:12:00;16.50;99.90
16066;DHT22;8137;48.952;8.970;2023-07-28T04:14:26;16.60;99.90
16066;DHT22;8137;48.952;8.970;2023-07-28T04:16:52;16.60;99.90
16066;DHT22;8137;48.952;8.970;2023-07-28T04:19:17;16.60;99.90
16066;DHT22;8137;48.952;8.970;2023-07-28T04:21:43;16.60;99.90
16066;DHT22;8137;48.952;8.970;2023-07-28T04:24:09;16.60;99.90
16066;DHT22;8137;48.952;8.970;2023-07-28T04:26:35;16.60;99.90
16066;DHT22;8137;48.952;8.970;2023-07-28T04:29:01;16.60;99.90
16066;DHT22;8137;48.952;8.970;2023-07-28T04:31:26;16.60;99.90
16066;DHT22;8137;48.952;8.970;2023-07-28T04:33:52;16.60;99.90
16066;DHT22;8137;48.952;8.970;2023-07-28T04:36:17;16.60;99.90
16066;DHT22;8137;48.952;8.970;2023-07-28T04:38:43;16.60;99.90
16066;DHT22;8137;48.952;8.970;2023-07-28T04:41:09;16.60;99.90
16066;DHT22;8137;48.952;8.970;2023-07-28T04:43:34;16.60;99.90
16066;DHT22;8137;48.952;8.970;2023-07-28T04:46:00;16.60;99.90
16066;DHT22;8137;48.952;8.970;2023-07-28T04:48:26;16.60;99.90
16066;DHT22;8137;48.952;8.970;2023-07-28T04:50:52;16.70;99.90
16066;DHT22;8137;48.952;8.970;2023-07-28T04:53:18;16.70;99.90
16066;DHT22;8137;48.952;8.970;2023-07-28T04:55:43;16.70;99.90
16066;DHT22;8137;48.952;8.970;2023-07-28T04:58:09;16.70;99.90
16066;DHT22;8137;48.952;8.970;2023-07-28T05:00:34;16.70;99.90
16066;DHT22;8137;48.952;8.970;2023-07-28T05:03:00;16.70;99.90
16066;DHT22;8137;48.952;8.970;2023-07-28T05:05:26;16.70;99.90
16066;DHT22;8137;48.952;8.970;2023-07-28T05:07:51;16.80;99.90
16066;DHT22;8137;48.952;8.970;2023-07-28T05:10:17;16.80;99.90
16066;DHT22;8137;48.952;8.970;2023-07-28T05:12:42;16.80;99.90
16066;DHT22;8137;48.952;8.970;2023-07-28T05:15:08;16.80;99.90
16066;DHT22;8137;48.952;8.970;2023-07-28T05:17:36;16.90;99.90
16066;DHT22;8137;48.952;8.970;2023-07-28T05:20:02;17.00;99.90
16066;DHT22;8137;48.952;8.970;2023-07-28T05:22:28;17.00;99.90
16066;DHT22;8137;48.952;8.970;2023-07-28T05:24:53;17.00;99.90
16066;DHT22;8137;48.952;8.970;2023-07-28T05:27:19;17.10;99.90
16066;DHT22;8137;48.952;8.970;2023-07-28T05:29:45;17.10;99.90
16066;DHT22;8137;48.952;8.970;2023-07-28T05:32:10;17.10;99.90
16066;DHT22;8137;48.952;8.970;2023-07-28T05:34:36;17.10;99.90
16066;DHT22;8137;48.952;8.970;2023-07-28T05:37:01;17.20;99.90
16066;DHT22;8137;48.952;8.970;2023-07-28T05:39:27;17.20;99.90
16066;DHT22;8137;48.952;8.970;2023-07-28T05:41:53;17.30;99.90
16066;DHT22;8137;48.952;8.970;2023-07-28T05:44:18;17.30;99.90
16066;DHT22;8137;48.952;8.970;2023-07-28T05:46:44;17.40;99.90
16066;DHT22;8137;48.952;8.970;2023-07-28T05:49:11;17.30;99.90
16066;DHT22;8137;48.952;8.970;2023-07-28T05:51:36;17.40;99.90
16066;DHT22;8137;48.952;8.970;2023-07-28T05:54:02;17.40;99.90
16066;DHT22;8137;48.952;8.970;2023-07-28T05:56:28;17.40;99.90
16066;DHT22;8137;48.952;8.970;2023-07-28T05:58:54;17.40;99.90
16066;DHT22;8137;48.952;8.970;2023-07-28T06:01:19;17.40;99.90
16066;DHT22;8137;48.952;8.970;2023-07-28T06:03:45;17.40;99.90
16066;DHT22;8137;48.952;8.970;2023-07-28T06:06:10;17.40;99.90
16066;DHT22;8137;48.952;8.970;2023-07-28T06:08:37;17.40;99.90
16066;DHT22;8137;48.952;8.970;2023-07-28T06:11:06;17.50;99.90
16066;DHT22;8137;48.952;8.970;2023-07-28T06:13:32;17.50;99.90
16066;DHT22;8137;48.952;8.970;2023-07-28T06:15:58;17.50;99.90
16066;DHT22;8137;48.952;8.970;2023-07-28T06:18:24;17.50;99.90
16066;DHT22;8137;48.952;8.970;2023-07-28T06:20:50;17.50;99.90
16066;DHT22;8137;48.952;8.970;2023-07-28T06:23:15;17.60;99.90
16066;DHT22;8137;48.952;8.970;2023-07-28T06:25:41;17.60;99.90
16066;DHT22;8137;48.952;8.970;2023-07-28T06:28:10;17.60;99.90
16066;DHT22;8137;48.952;8.970;2023-07-28T06:30:36;17.70;99.90
16066;DHT22;8137;48.952;8.970;2023-07-28T06:33:03;17.80;99.90
16066;DHT22;8137;48.952;8.970;2023-07-28T06:35:28;17.80;99.90
16066;DHT22;8137;48.952;8.970;2023-07-28T06:37:55;17.90;99.90
16066;DHT22;8137;48.952;8.970;2023-07-28T06:40:21;17.90;99.90
16066;DHT22;8137;48.952;8.970;2023-07-28T06:42:46;17.90;99.90
16066;DHT22;8137;48.952;8.970;2023-07-28T06:45:12;18.00;99.90
16066;DHT22;8137;48.952;8.970;2023-07-28T06:47:39;18.00;99.90
16066;DHT22;8137;48.952;8.970;2023-07-28T06:50:05;18.20;99.90
16066;DHT22;8137;48.952;8.970;2023-07-28T06:52:31;18.30;99.90
16066;DHT22;8137;48.952;8.970;2023-07-28T06:54:56;18.40;99.90
16066;DHT22;8137;48.952;8.970;2023-07-28T06:57:22;18.40;99.90
16066;DHT22;8137;48.952;8.970;2023-07-28T06:59:50;18.60;99.90
16066;DHT22;8137;48.952;8.970;2023-07-28T07:02:16;18.70;99.90
16066;DHT22;8137;48.952;8.970;2023-07-28T07:04:41;18.70;99.90
16066;DHT22;8137;48.952;8.970;2023-07-28T07:07:07;18.80;99.90
16066;DHT22;8137;48.952;8.970;2023-07-28T07:09:33;18.90;99.90
16066;DHT22;8137;48.952;8.970;2023-07-28T07:12:00;18.90;99.90
16066;DHT22;8137;48.952;8.970;2023-07-28T07:14:25;18.80;99.90
16066;DHT22;8137;48.952;8.970;2023-07-28T07:16:51;18.70;99.90
16066;DHT22;8137;48.952;8.970;2023-07-28T07:19:16;18.80;99.90
16066;DHT22;8137;48.952;8.970;2023-07-28T07:21:42;18.90;99.90
16066;DHT22;8137;48.952;8.970;2023-07-28T07:24:10;19.10;99.90
16066;DHT22;8137;48.952;8.970;2023-07-28T07:26:39;19.40;99.90
16066;DHT22;8137;48.952;8.970;2023-07-28T07:29:05;19.80;99.90
16066;DHT22;8137;48.952;8.970;2023-07-28T07:31:30;20.20;99.90
16066;DHT22;8137;48.952;8.970;2023-07-28T07:33:56;20.40;99.90
16066;DHT22;8137;48.952;8.970;2023-07-28T07:36:21;20.30;99.90
16066;DHT22;8137;48.952;8.970;2023-07-28T07:38:47;20.20;99.90
16066;DHT22;8137;48.952;8.970;2023-07-28T07:41:15;20.10;99.90
16066;DHT22;8137;48.952;8.970;2023-07-28T07:43:47;20.10;99.90
16066;DHT22;8137;48.952;8.970;2023-07-28T07:46:14;20.10;99.90
16066;DHT22;8137;48.952;8.970;2023-07-28T07:48:40;20.10;99.90
16066;DHT22;8137;48.952;8.970;2023-07-28T07:51:07;19.70;99.90
16066;DHT22;8137;48.952;8.970;2023-07-28T07:53:32;19.50;99.90
16066;DHT22;8137;48.952;8.970;2023-07-28T07:55:58;19.40;99.90
16066;DHT22;8137;48.952;8.970;2023-07-28T07:58:23;19.20;99.90
16066;DHT22;8137;48.952;8.970;2023-07-28T08:00:49;19.10;99.90
16066;DHT22;8137;48.952;8.970;2023-07-28T08:03:15;19.10;99.90
16066;DHT22;8137;48.952;8.970;2023-07-28T08:05:40;19.10;99.90
16066;DHT22;8137;48.952;8.970;2023-07-28T08:08:06;19.20;99.90
16066;DHT22;8137;48.952;8.970;2023-07-28T08:10:33;19.30;99.90
16066;DHT22;8137;48.952;8.970;2023-07-28T08:12:58;19.50;99.90
16066;DHT22;8137;48.952;8.970;2023-07-28T08:15:25;19.50;99.90
16066;DHT22;8137;48.952;8.970;2023-07-28T08:17:52;19.60;99.90
16066;DHT22;8137;48.952;8.970;2023-07-28T08:20:20;19.70;99.90
16066;DHT22;8137;48.952;8.970;2023-07-28T08:22:46;19.80;99.90
16066;DHT22;8137;48.952;8.970;2023-07-28T08:25:11;19.90;99.90
16066;DHT22;8137;48.952;8.970;2023-07-28T08:27:37;20.10;99.90
16066;DHT22;8137;48.952;8.970;2023-07-28T08:30:03;20.10;99.90
16066;DHT22;8137;48.952;8.970;2023-07-28T08:32:29;20.20;99.90
16066;DHT22;8137;48.952;8.970;2023-07-28T08:34:55;20.20;99.90
16066;DHT22;8137;48.952;8.970;2023-07-28T08:37:20;20.30;99.90
16066;DHT22;8137;48.952;8.970;2023-07-28T08:39:46;20.30;99.90
16066;DHT22;8137;48.952;8.970;2023-07-28T08:42:11;20.40;99.90
16066;DHT22;8137;48.952;8.970;2023-07-28T08:44:37;20.50;99.90
16066;DHT22;8137;48.952;8.970;2023-07-28T08:47:04;20.50;99.90
16066;DHT22;8137;48.952;8.970;2023-07-28T08:49:33;20.50;99.90
16066;DHT22;8137;48.952;8.970;2023-07-28T08:52:02;20.60;99.90
16066;DHT22;8137;48.952;8.970;2023-07-28T08:54:29;20.80;99.90
16066;DHT22;8137;48.952;8.970;2023-07-28T08:56:54;21.00;99.90
16066;DHT22;8137;48.952;8.970;2023-07-28T08:59:21;21.30;99.90
16066;DHT22;8137;48.952;8.970;2023-07-28T09:01:50;21.30;99.90
16066;DHT22;8137;48.952;8.970;2023-07-28T09:04:15;21.40;99.90
16066;DHT22;8137;48.952;8.970;2023-07-28T09:06:45;21.60;99.90
16066;DHT22;8137;48.952;8.970;2023-07-28T09:09:11;21.90;99.90
16066;DHT22;8137;48.952;8.970;2023-07-28T09:11:49;22.20;99.90
16066;DHT22;8137;48.952;8.970;2023-07-28T09:14:16;22.30;99.90
16066;DHT22;8137;48.952;8.970;2023-07-28T09:16:43;22.60;99.90
16066;DHT22;8137;48.952;8.970;2023-07-28T09:19:10;23.00;99.90
16066;DHT22;8137;48.952;8.970;2023-07-28T09:21:37;23.10;99.90
16066;DHT22;8137;48.952;8.970;2023-07-28T09:24:08;22.80;99.90
16066;DHT22;8137;48.952;8.970;2023-07-28T09:29:11;22.90;99.90
16066;DHT22;8137;48.952;8.970;2023-07-28T09:31:37;23.20;99.90
16066;DHT22;8137;48.952;8.970;2023-07-28T09:34:07;23.20;99.90
16066;DHT22;8137;48.952;8.970;2023-07-28T09:36:34;23.00;99.90
16066;DHT22;8137;48.952;8.970;2023-07-28T09:38:59;22.80;99.90
16066;DHT22;8137;48.952;8.970;2023-07-28T09:41:29;22.80;99.90
16066;DHT22;8137;48.952;8.970;2023-07-28T09:43:55;23.20;99.90
16066;DHT22;8137;48.952;8.970;2023-07-28T09:46:23;23.40;99.90
16066;DHT22;8137;48.952;8.970;2023-07-28T09:48:52;23.50;99.90
16066;DHT22;8137;48.952;8.970;2023-07-28T09:51:22;23.30;99.90
16066;DHT22;8137;48.952;8.970;2023-07-28T09:54:08;23.20;99.90
16066;DHT22;8137;48.952;8.970;2023-07-28T09:56:37;23.10;99.90
16066;DHT22;8137;48.952;8.970;2023-07-28T09:59:08;23.00;99.90
16066;DHT22;8137;48.952;8.970;2023-07-28T10:01:36;23.40;99.90
16066;DHT22;8137;48.952;8.970;2023-07-28T10:04:02;23.70;99.90
16066;DHT22;8137;48.952;8.970;2023-07-28T10:06:28;23.60;99.90
16066;DHT22;8137;48.952;8.970;2023-07-28T10:08:55;23.60;99.90
16066;DHT22;8137;48.952;8.970;2023-07-28T10:11:22;22.90;99.90
16066;DHT22;8137;48.952;8.970;2023-07-28T10:13:51;22.60;99.90
16066;DHT22;8137;48.952;8.970;2023-07-28T10:16:16;22.20;99.90
16066;DHT22;8137;48.952;8.970;2023-07-28T10:18:52;22.10;99.90
16066;DHT22;8137;48.952;8.970;2023-07-28T10:21:19;22.00;99.90
16066;DHT22;8137;48.952;8.970;2023-07-28T10:23:44;22.20;99.90
16066;DHT22;8137;48.952;8.970;2023-07-28T10:26:10;22.30;99.90
16066;DHT22;8137;48.952;8.970;2023-07-28T10:28:38;22.40;99.90
16066;DHT22;8137;48.952;8.970;2023-07-28T10:31:07;22.30;99.90
16066;DHT22;8137;48.952;8.970;2023-07-28T10:33:43;22.30;99.90
16066;DHT22;8137;48.952;8.970;2023-07-28T10:39:15;22.00;99.90
16066;DHT22;8137;48.952;8.970;2023-07-28T10:42:07;21.90;99.90
16066;DHT22;8137;48.952;8.970;2023-07-28T10:44:34;21.90;99.90
16066;DHT22;8137;48.952;8.970;2023-07-28T10:47:01;22.10;99.90
16066;DHT22;8137;48.952;8.970;2023-07-28T10:49:27;22.40;99.90
16066;DHT22;8137;48.952;8.970;2023-07-28T10:51:53;22.60;99.90
16066;DHT22;8137;48.952;8.970;2023-07-28T10:54:19;22.60;99.90
16066;DHT22;8137;48.952;8.970;2023-07-28T10:56:46;22.30;99.90
16066;DHT22;8137;48.952;8.970;2023-07-28T10:59:12;22.10;99.90
16066;DHT22;8137;48.952;8.970;2023-07-28T11:01:39;22.00;99.90
16066;DHT22;8137;48.952;8.970;2023-07-28T11:04:17;21.90;99.90
16066;DHT22;8137;48.952;8.970;2023-07-28T11:06:48;21.70;99.90
16066;DHT22;8137;48.952;8.970;2023-07-28T11:09:16;21.70;99.90
16066;DHT22;8137;48.952;8.970;2023-07-28T11:11:43;21.70;99.90
16066;DHT22;8137;48.952;8.970;2023-07-28T11:14:09;21.80;99.90
16066;DHT22;8137;48.952;8.970;2023-07-28T11:16:39;21.80;99.90
16066;DHT22;8137;48.952;8.970;2023-07-28T11:19:10;21.90;99.90
16066;DHT22;8137;48.952;8.970;2023-07-28T11:21:40;22.00;99.90
16066;DHT22;8137;48.952;8.970;2023-07-28T11:24:10;22.30;99.90
16066;DHT22;8137;48.952;8.970;2023-07-28T11:26:39;22.50;99.90
16066;DHT22;8137;48.952;8.970;2023-07-28T11:29:05;22.60;99.90
16066;DHT22;8137;48.952;8.970;2023-07-28T11:31:31;22.70;99.90
16066;DHT22;8137;48.952;8.970;2023-07-28T11:33:58;22.60;99.90
16066;DHT22;8137;48.952;8.970;2023-07-28T11:36:26;22.60;99.90
16066;DHT22;8137;48.952;8.970;2023-07-28T11:38:53;22.50;99.90
16066;DHT22;8137;48.952;8.970;2023-07-28T11:41:20;22.30;99.90
16066;DHT22;8137;48.952;8.970;2023-07-28T11:43:47;22.30;99.90
16066;DHT22;8137;48.952;8.970;2023-07-28T11:46:33;22.40;99.90
16066;DHT22;8137;48.952;8.970;2023-07-28T11:51:39;22.50;99.90
16066;DHT22;8137;48.952;8.970;2023-07-28T11:54:06;22.50;99.90
16066;DHT22;8137;48.952;8.970;2023-07-28T11:56:31;22.70;99.90
16066;DHT22;8137;48.952;8.970;2023-07-28T11:58:58;22.90;99.90
16066;DHT22;8137;48.952;8.970;2023-07-28T12:01:23;23.10;99.90
16066;DHT22;8137;48.952;8.970;2023-07-28T12:03:49;23.30;99.90
16066;DHT22;8137;48.952;8.970;2023-07-28T12:06:15;23.50;99.90
16066;DHT22;8137;48.952;8.970;2023-07-28T12:08:40;23.60;99.90
16066;DHT22;8137;48.952;8.970;2023-07-28T12:11:15;23.90;99.90
16066;DHT22;8137;48.952;8.970;2023-07-28T12:13:49;24.00;99.90
16066;DHT22;8137;48.952;8.970;2023-07-28T12:16:40;23.90;99.90
16066;DHT22;8137;48.952;8.970;2023-07-28T12:19:09;23.60;99.90
16066;DHT22;8137;48.952;8.970;2023-07-28T12:21:35;23.40;99.90
16066;DHT22;8137;48.952;8.970;2023-07-28T12:24:00;23.30;99.90
16066;DHT22;8137;48.952;8.970;2023-07-28T12:26:26;23.10;99.90
16066;DHT22;8137;48.952;8.970;2023-07-28T12:28:51;22.90;99.90
16066;DHT22;8137;48.952;8.970;2023-07-28T12:31:17;22.80;99.90
16066;DHT22;8137;48.952;8.970;2023-07-28T12:33:42;22.60;99.90
16066;DHT22;8137;48.952;8.970;2023-07-28T12:36:08;22.40;99.90
16066;DHT22;8137;48.952;8.970;2023-07-28T12:38:33;22.10;99.90
16066;DHT22;8137;48.952;8.970;2023-07-28T12:40:59;21.90;99.90
16066;DHT22;8137;48.952;8.970;2023-07-28T12:43:24;21.70;99.90
16066;DHT22;8137;48.952;8.970;2023-07-28T12:45:51;21.40;99.90
16066;DHT22;8137;48.952;8.970;2023-07-28T12:48:18;21.30;99.90
16066;DHT22;8137;48.952;8.970;2023-07-28T12:50:44;21.30;99.90
16066;DHT22;8137;48.952;8.970;2023-07-28T12:53:10;21.40;99.90
16066;DHT22;8137;48.952;8.970;2023-07-28T12:55:35;21.30;99.90
16066;DHT22;8137;48.952;8.970;2023-07-28T12:58:02;21.50;99.90
16066;DHT22;8137;48.952;8.970;2023-07-28T13:00:28;21.70;99.90
16066;DHT22;8137;48.952;8.970;2023-07-28T13:02:54;21.90;99.90
16066;DHT22;8137;48.952;8.970;2023-07-28T13:05:19;22.00;99.90
16066;DHT22;8137;48.952;8.970;2023-07-28T13:07:45;22.10;99.90
16066;DHT22;8137;48.952;8.970;2023-07-28T13:10:11;22.20;99.90
16066;DHT22;8137;48.952;8.970;2023-07-28T13:12:37;22.20;99.90
16066;DHT22;8137;48.952;8.970;2023-07-28T13:15:04;22.10;99.90
16066;DHT22;8137;48.952;8.970;2023-07-28T13:17:30;22.00;99.90
16066;DHT22;8137;48.952;8.970;2023-07-28T13:19:55;21.80;99.90
16066;DHT22;8137;48.952;8.970;2023-07-28T13:22:23;21.60;99.90
16066;DHT22;8137;48.952;8.970;2023-07-28T13:24:48;21.60;99.90
16066;DHT22;8137;48.952;8.970;2023-07-28T13:27:14;21.50;99.90
16066;DHT22;8137;48.952;8.970;2023-07-28T13:29:39;21.30;99.90
16066;DHT22;8137;48.952;8.970;2023-07-28T13:32:18;21.30;99.90
16066;DHT22;8137;48.952;8.970;2023-07-28T13:34:47;21.30;99.90
16066;DHT22;8137;48.952;8.970;2023-07-28T13:37:13;21.10;99.90
16066;DHT22;8137;48.952;8.970;2023-07-28T13:39:39;21.00;99.90
16066;DHT22;8137;48.952;8.970;2023-07-28T13:42:05;20.90;99.90
16066;DHT22;8137;48.952;8.970;2023-07-28T13:44:30;20.80;99.90
16066;DHT22;8137;48.952;8.970;2023-07-28T13:46:56;20.80;99.90
16066;DHT22;8137;48.952;8.970;2023-07-28T13:49:22;20.80;99.90
16066;DHT22;8137;48.952;8.970;2023-07-28T13:51:47;20.70;99.90
16066;DHT22;8137;48.952;8.970;2023-07-28T13:54:13;20.70;99.90
16066;DHT22;8137;48.952;8.970;2023-07-28T13:56:38;20.70;99.90
16066;DHT22;8137;48.952;8.970;2023-07-28T13:59:04;20.60;99.90
16066;DHT22;8137;48.952;8.970;2023-07-28T14:01:30;20.50;99.90
16066;DHT22;8137;48.952;8.970;2023-07-28T14:03:56;20.40;99.90
16066;DHT22;8137;48.952;8.970;2023-07-28T14:06:21;20.30;99.90
16066;DHT22;8137;48.952;8.970;2023-07-28T14:08:47;20.40;99.90
16066;DHT22;8137;48.952;8.970;2023-07-28T14:11:12;20.40;99.90
16066;DHT22;8137;48.952;8.970;2023-07-28T14:13:38;20.30;99.90
16066;DHT22;8137;48.952;8.970;2023-07-28T14:16:04;20.40;99.90
16066;DHT22;8137;48.952;8.970;2023-07-28T14:18:30;20.40;99.90
16066;DHT22;8137;48.952;8.970;2023-07-28T14:20:56;20.40;99.90
16066;DHT22;8137;48.952;8.970;2023-07-28T14:23:26;20.50;99.90
16066;DHT22;8137;48.952;8.970;2023-07-28T14:25:52;20.60;99.90
16066;DHT22;8137;48.952;8.970;2023-07-28T14:28:19;20.60;99.90
16066;DHT22;8137;48.952;8.970;2023-07-28T14:30:44;20.70;99.90
16066;DHT22;8137;48.952;8.970;2023-07-28T14:33:16;20.70;99.90
16066;DHT22;8137;48.952;8.970;2023-07-28T14:35:43;20.60;99.90
16066;DHT22;8137;48.952;8.970;2023-07-28T14:38:09;20.60;99.90
16066;DHT22;8137;48.952;8.970;2023-07-28T14:40:36;20.70;99.90
16066;DHT22;8137;48.952;8.970;2023-07-28T14:43:02;20.70;99.90
16066;DHT22;8137;48.952;8.970;2023-07-28T14:45:28;20.70;99.90
16066;DHT22;8137;48.952;8.970;2023-07-28T14:47:53;20.80;99.90
16066;DHT22;8137;48.952;8.970;2023-07-28T14:50:19;20.80;99.90
16066;DHT22;8137;48.952;8.970;2023-07-28T14:52:45;20.80;99.90
16066;DHT22;8137;48.952;8.970;2023-07-28T14:55:10;20.90;99.90
16066;DHT22;8137;48.952;8.970;2023-07-28T14:57:36;21.00;99.90
16066;DHT22;8137;48.952;8.970;2023-07-28T15:00:02;21.00;99.90
16066;DHT22;8137;48.952;8.970;2023-07-28T15:02:28;20.90;99.90
16066;DHT22;8137;48.952;8.970;2023-07-28T15:04:54;21.00;99.90
16066;DHT22;8137;48.952;8.970;2023-07-28T15:07:19;20.90;99.90
16066;DHT22;8137;48.952;8.970;2023-07-28T15:09:48;21.00;99.90
16066;DHT22;8137;48.952;8.970;2023-07-28T15:12:13;21.00;99.90
16066;DHT22;8137;48.952;8.970;2023-07-28T15:14:39;21.00;99.90
16066;DHT22;8137;48.952;8.970;2023-07-28T15:17:05;20.90;99.90
16066;DHT22;8137;48.952;8.970;2023-07-28T15:19:30;20.90;99.90
16066;DHT22;8137;48.952;8.970;2023-07-28T15:21:56;20.70;99.90
16066;DHT22;8137;48.952;8.970;2023-07-28T15:24:22;20.60;99.90
16066;DHT22;8137;48.952;8.970;2023-07-28T15:26:48;20.50;99.90
16066;DHT22;8137;48.952;8.970;2023-07-28T15:29:15;20.40;99.90
16066;DHT22;8137;48.952;8.970;2023-07-28T15:31:41;20.20;99.90
16066;DHT22;8137;48.952;8.970;2023-07-28T15:34:06;20.00;99.90
16066;DHT22;8137;48.952;8.970;2023-07-28T15:36:32;19.80;99.90
16066;DHT22;8137;48.952;8.970;2023-07-28T15:38:57;19.70;99.90
16066;DHT22;8137;48.952;8.970;2023-07-28T15:41:24;19.50;99.90
16066;DHT22;8137;48.952;8.970;2023-07-28T15:43:50;19.40;99.90
16066;DHT22;8137;48.952;8.970;2023-07-28T15:46:15;19.40;99.90
16066;DHT22;8137;48.952;8.970;2023-07-28T15:48:41;19.40;99.90
16066;DHT22;8137;48.952;8.970;2023-07-28T15:51:07;19.40;99.90